createdAt,value
2023-03-29T00:01:45.771Z,98519.66
2023-03-29T00:04:20.021Z,98509.16
2023-03-29T00:06:48.674Z,98509.63
2023-03-29T00:09:19.198Z,98518.00
2023-03-29T00:11:47.644Z,98508.56
2023-03-29T00:14:15.938Z,98504.66
2023-03-29T00:16:45.247Z,98510.31
2023-03-29T00:19:14.320Z,98502.38
2023-03-29T00:21:42.683Z,98503.09
2023-03-29T00:24:10.590Z,98491.47
2023-03-29T00:26:41.630Z,98496.41
2023-03-29T00:29:10.332Z,98488.75
2023-03-29T00:31:39.043Z,98487.84
2023-03-29T00:34:07.854Z,98488.47
2023-03-29T00:36:36.449Z,98492.97
2023-03-29T00:39:04.744Z,98489.97
2023-03-29T00:41:32.498Z,98484.13
2023-03-29T00:44:02.448Z,98482.81
2023-03-29T00:46:31.717Z,98484.31
2023-03-29T00:49:06.185Z,98478.44
2023-03-29T00:51:35.695Z,98479.19
2023-03-29T00:54:05.585Z,98474.09
2023-03-29T00:56:38.301Z,98478.63
2023-03-29T00:59:21.899Z,98473.38
2023-03-29T01:01:58.302Z,98462.75
2023-03-29T01:04:36.984Z,98459.47
2023-03-29T01:07:07.627Z,98461.53
2023-03-29T01:09:40.993Z,98461.53
2023-03-29T01:12:17.622Z,98450.91
2023-03-29T01:14:52.812Z,98448.22
2023-03-29T01:17:25.944Z,98448.22
2023-03-29T01:20:11.361Z,98445.34
2023-03-29T01:22:42.360Z,98434.84
2023-03-29T01:25:38.321Z,98435.19
2023-03-29T01:28:08.962Z,98428.13
2023-03-29T01:30:42.259Z,98422.28
2023-03-29T01:33:21.258Z,98422.13
2023-03-29T01:36:01.513Z,98414.47
2023-03-29T01:38:42.820Z,98420.75
2023-03-29T01:41:11.859Z,98419.53
2023-03-29T01:43:48.968Z,98414.75
2023-03-29T01:46:29.533Z,98418.03
2023-03-29T01:49:03.821Z,98418.63
2023-03-29T01:51:41.186Z,98419.56
2023-03-29T01:54:15.155Z,98407.56
2023-03-29T01:56:43.849Z,98400.03
2023-03-29T01:59:14.015Z,98400.31
2023-03-29T02:01:49.199Z,98395.09
2023-03-29T02:04:18.861Z,98394.63
2023-03-29T02:06:46.460Z,98394.06
2023-03-29T02:09:16.667Z,98380.38
2023-03-29T02:11:44.765Z,98387.59
2023-03-29T02:14:11.935Z,98384.72
2023-03-29T02:16:39.129Z,98382.63
2023-03-29T02:19:07.855Z,98377.22
2023-03-29T02:21:51.798Z,98375.44
2023-03-29T02:24:20.589Z,98362.25
2023-03-29T02:26:48.314Z,98366.00
2023-03-29T02:29:15.756Z,98362.53
2023-03-29T02:31:51.825Z,98359.09
2023-03-29T02:34:24.536Z,98355.81
2023-03-29T02:36:54.430Z,98350.88
2023-03-29T02:39:23.248Z,98355.38
2023-03-29T02:41:51.182Z,98348.50
2023-03-29T02:44:23.715Z,98347.75
2023-03-29T02:46:54.722Z,98345.34
2023-03-29T02:49:22.246Z,98339.66
2023-03-29T02:51:52.628Z,98332.59
2023-03-29T02:54:23.283Z,98327.19
2023-03-29T02:56:58.821Z,98325.09
2023-03-29T02:59:26.584Z,98321.34
2023-03-29T03:01:53.865Z,98308.91
2023-03-29T03:04:21.078Z,98311.88
2023-03-29T03:06:48.252Z,98313.38
2023-03-29T03:09:15.730Z,98304.06
2023-03-29T03:11:43.117Z,98300.16
2023-03-29T03:14:10.239Z,98305.84
2023-03-29T03:16:37.385Z,98295.94
2023-03-29T03:19:04.648Z,98298.47
2023-03-29T03:21:31.848Z,98292.63
2023-03-29T03:23:59.142Z,98291.69
2023-03-29T03:26:30.016Z,98281.44
2023-03-29T03:28:57.703Z,98288.47
2023-03-29T03:31:25.125Z,98287.94
2023-03-29T03:33:52.889Z,98290.56
2023-03-29T03:36:26.012Z,98283.47
2023-03-29T03:38:53.249Z,98292.53
2023-03-29T03:41:20.335Z,98295.44
2023-03-29T03:43:48.944Z,98282.59
2023-03-29T03:46:17.191Z,98291.09
2023-03-29T03:48:45.997Z,98292.69
2023-03-29T03:51:13.055Z,98288.59
2023-03-29T03:53:40.321Z,98288.72
2023-03-29T03:56:10.467Z,98286.09
2023-03-29T03:58:38.074Z,98286.81
2023-03-29T04:01:06.692Z,98281.88
2023-03-29T04:03:34.023Z,98283.66
2023-03-29T04:06:02.195Z,98283.09
2023-03-29T04:08:29.241Z,98281.16
2023-03-29T04:10:58.319Z,98283.31
2023-03-29T04:13:26.498Z,98278.53
2023-03-29T04:15:54.510Z,98272.38
2023-03-29T04:18:22.148Z,98272.72
2023-03-29T04:20:49.973Z,98270.22
2023-03-29T04:23:17.099Z,98264.03
2023-03-29T04:25:44.588Z,98264.03
2023-03-29T04:28:12.532Z,98257.44
2023-03-29T04:30:39.652Z,98255.03
2023-03-29T04:33:06.826Z,98264.81
2023-03-29T04:35:34.018Z,98267.59
2023-03-29T04:38:01.220Z,98263.50
2023-03-29T04:40:29.016Z,98268.56
2023-03-29T04:42:56.275Z,98274.53
2023-03-29T04:45:23.387Z,98269.09
2023-03-29T04:47:50.569Z,98265.19
2023-03-29T04:50:17.720Z,98270.91
2023-03-29T04:52:45.527Z,98261.09
2023-03-29T04:55:12.936Z,98254.47
2023-03-29T04:57:39.965Z,98257.44
2023-03-29T05:00:17.413Z,98254.00
2023-03-29T05:02:44.969Z,98261.38
2023-03-29T05:05:12.879Z,98254.28
2023-03-29T05:07:40.205Z,98256.81
2023-03-29T05:10:08.351Z,98253.63
2023-03-29T05:12:35.638Z,98258.28
2023-03-29T05:15:03.985Z,98253.63
2023-03-29T05:17:31.955Z,98242.81
2023-03-29T05:19:59.057Z,98258.56
2023-03-29T05:22:26.125Z,98248.69
2023-03-29T05:24:53.166Z,98243.00
2023-03-29T05:27:22.910Z,98244.78
2023-03-29T05:29:50.087Z,98236.28
2023-03-29T05:32:17.201Z,98243.94
2023-03-29T05:34:45.080Z,98245.78
2023-03-29T05:37:13.359Z,98241.88
2023-03-29T05:39:40.430Z,98236.84
2023-03-29T05:42:07.685Z,98233.31
2023-03-29T05:44:34.810Z,98225.47
2023-03-29T05:47:01.927Z,98228.63
2023-03-29T05:49:28.992Z,98230.13
2023-03-29T05:51:57.051Z,98223.31
2023-03-29T05:54:25.230Z,98225.84
2023-03-29T05:56:52.523Z,98220.53
2023-03-29T05:59:20.115Z,98223.59
2023-03-29T06:01:47.379Z,98223.97
2023-03-29T06:04:15.205Z,98216.50
2023-03-29T06:06:42.379Z,98222.75
2023-03-29T06:09:09.890Z,98222.25
2023-03-29T06:11:37.085Z,98221.31
2023-03-29T06:14:04.661Z,98218.69
2023-03-29T06:16:32.507Z,98230.06
2023-03-29T06:18:59.788Z,98221.28
2023-03-29T06:21:27.150Z,98225.47
2023-03-29T06:23:54.178Z,98231.63
2023-03-29T06:26:21.376Z,98231.16
2023-03-29T06:28:51.289Z,98228.41
2023-03-29T06:31:19.942Z,98220.66
2023-03-29T06:33:47.415Z,98222.34
2023-03-29T06:36:16.250Z,98224.28
2023-03-29T06:38:45.545Z,98224.03
2023-03-29T06:41:12.733Z,98212.66
2023-03-29T06:43:39.828Z,98215.91
2023-03-29T06:46:12.179Z,98216.16
2023-03-29T06:48:40.938Z,98220.41
2023-03-29T06:51:08.341Z,98228.50
2023-03-29T06:53:36.607Z,98230.28
2023-03-29T06:56:08.954Z,98228.31
2023-03-29T06:58:36.717Z,98225.13
2023-03-29T07:01:04.749Z,98229.31
2023-03-29T07:03:34.873Z,98232.03
2023-03-29T07:06:09.737Z,98231.09
2023-03-29T07:08:44.373Z,98225.97
2023-03-29T07:11:13.198Z,98229.19
2023-03-29T07:13:43.888Z,98237.16
2023-03-29T07:16:12.907Z,98225.94
2023-03-29T07:18:41.629Z,98236.53
2023-03-29T07:21:09.146Z,98231.41
2023-03-29T07:23:36.227Z,98232.91
2023-03-29T07:26:05.655Z,98232.97
2023-03-29T07:28:32.888Z,98232.31
2023-03-29T07:31:10.821Z,98238.00
2023-03-29T07:33:38.206Z,98244.72
2023-03-29T07:36:06.404Z,98242.34
2023-03-29T07:38:33.634Z,98241.47
2023-03-29T07:41:04.444Z,98246.19
2023-03-29T07:43:31.684Z,98238.38
2023-03-29T07:46:02.947Z,98240.59
2023-03-29T07:48:30.978Z,98233.22
2023-03-29T07:50:58.179Z,98232.25
2023-03-29T07:53:25.347Z,98233.28
2023-03-29T07:55:54.738Z,98237.25
2023-03-29T07:58:21.887Z,98245.72
2023-03-29T08:00:49.430Z,98230.28
2023-03-29T08:03:17.063Z,98245.84
2023-03-29T08:05:44.323Z,98240.75
2023-03-29T08:08:11.406Z,98239.53
2023-03-29T08:10:39.455Z,98235.41
2023-03-29T08:13:08.306Z,98228.25
2023-03-29T08:15:38.860Z,98227.31
2023-03-29T08:18:07.194Z,98221.41
2023-03-29T08:20:34.297Z,98219.97
2023-03-29T08:23:01.468Z,98223.50
2023-03-29T08:25:28.541Z,98225.56
2023-03-29T08:27:55.636Z,98226.63
2023-03-29T08:30:22.939Z,98222.53
2023-03-29T08:32:52.875Z,98220.81
2023-03-29T08:35:21.191Z,98213.22
2023-03-29T08:37:48.314Z,98215.19
2023-03-29T08:40:20.118Z,98211.00
2023-03-29T08:43:23.997Z,98211.81
2023-03-29T08:46:07.565Z,98207.41
2023-03-29T08:48:42.663Z,98205.50
2023-03-29T08:51:19.680Z,98204.28
2023-03-29T08:53:52.730Z,98204.06
2023-03-29T08:56:25.334Z,98202.16
2023-03-29T08:58:52.561Z,98195.47
2023-03-29T09:01:20.566Z,98202.16
2023-03-29T09:03:50.583Z,98201.72
2023-03-29T09:06:20.778Z,98205.47
2023-03-29T09:08:49.836Z,98204.75
2023-03-29T09:11:26.202Z,98197.38
2023-03-29T09:14:21.424Z,98207.81
2023-03-29T09:16:51.533Z,98197.91
2023-03-29T09:19:46.010Z,98191.78
2023-03-29T09:22:22.446Z,98185.38
2023-03-29T09:25:09.822Z,98194.31
2023-03-29T09:28:04.544Z,98184.44
2023-03-29T09:31:13.211Z,98178.28
2023-03-29T09:33:45.064Z,98189.66
2023-03-29T09:36:24.967Z,98186.22
2023-03-29T09:38:54.460Z,98190.69
2023-03-29T09:41:31.698Z,98190.69
2023-03-29T09:44:00.786Z,98186.00
2023-03-29T09:46:43.445Z,98183.31
2023-03-29T09:49:17.422Z,98183.81
2023-03-29T09:51:45.972Z,98188.75
2023-03-29T09:54:13.211Z,98178.41
2023-03-29T09:56:40.664Z,98183.81
2023-03-29T09:59:11.179Z,98178.88
2023-03-29T10:01:41.798Z,98170.94
2023-03-29T10:04:09.991Z,98169.97
2023-03-29T10:06:39.583Z,98167.97
2023-03-29T10:09:16.317Z,98164.72
2023-03-29T10:11:47.690Z,98162.72
2023-03-29T10:14:32.574Z,98162.94
2023-03-29T10:16:59.938Z,98157.44
2023-03-29T10:19:34.433Z,98150.25
2023-03-29T10:22:16.896Z,98156.56
2023-03-29T10:24:52.061Z,98134.16
2023-03-29T10:27:24.697Z,98143.28
2023-03-29T10:29:51.954Z,98143.25
2023-03-29T10:32:22.808Z,98146.09
2023-03-29T10:34:51.258Z,98145.16
2023-03-29T10:37:19.466Z,98142.56
2023-03-29T10:39:47.930Z,98143.38
2023-03-29T10:42:17.751Z,98143.16
2023-03-29T10:44:53.637Z,98130.34
2023-03-29T10:47:21.510Z,98126.16
2023-03-29T10:49:56.459Z,98132.59
2023-03-29T10:52:24.885Z,98126.47
2023-03-29T10:54:55.933Z,98121.22
2023-03-29T10:57:37.687Z,98119.97
2023-03-29T11:00:33.308Z,98118.50
2023-03-29T11:03:21.862Z,98118.06
2023-03-29T11:06:01.846Z,98112.50
2023-03-29T11:08:42.172Z,98115.47
2023-03-29T11:11:30.964Z,98099.19
2023-03-29T11:14:16.775Z,98105.19
2023-03-29T11:17:02.494Z,98100.53
2023-03-29T11:19:32.304Z,98092.88
2023-03-29T11:22:21.372Z,98092.00
2023-03-29T11:24:59.366Z,98089.66
2023-03-29T11:27:35.585Z,98093.72
2023-03-29T11:30:40.166Z,98093.22
2023-03-29T11:33:26.664Z,98079.69
2023-03-29T11:36:17.678Z,98076.53
2023-03-29T11:39:04.895Z,98087.47
2023-03-29T11:41:34.436Z,98084.13
2023-03-29T11:44:05.523Z,98076.50
2023-03-29T11:46:37.809Z,98079.75
2023-03-29T11:49:15.603Z,98085.00
2023-03-29T11:51:46.315Z,98082.78
2023-03-29T11:54:13.228Z,98090.69
2023-03-29T11:56:46.777Z,98087.16
2023-03-29T11:59:24.863Z,98088.94
2023-03-29T12:01:55.011Z,98092.16
2023-03-29T12:04:32.639Z,98082.78
2023-03-29T12:07:09.804Z,98086.31
2023-03-29T12:09:50.242Z,98087.19
2023-03-29T12:12:29.669Z,98081.91
2023-03-29T12:15:01.751Z,98086.88
2023-03-29T12:17:40.360Z,98085.84
2023-03-29T12:20:15.586Z,98078.84
2023-03-29T12:22:46.104Z,98072.94
2023-03-29T12:25:18.818Z,98074.22
2023-03-29T12:28:01.461Z,98062.69
2023-03-29T12:30:46.441Z,98066.91
2023-03-29T12:33:41.402Z,98055.44
2023-03-29T12:36:24.878Z,98065.59
2023-03-29T12:38:53.127Z,98052.56
2023-03-29T12:41:22.209Z,98057.56
2023-03-29T12:43:49.556Z,98057.84
2023-03-29T12:46:19.914Z,98049.25
2023-03-29T12:48:49.907Z,98055.97
2023-03-29T12:51:19.213Z,98046.44
2023-03-29T12:53:47.723Z,98048.03
2023-03-29T12:56:23.723Z,98043.59
2023-03-29T12:59:15.811Z,98053.56
2023-03-29T13:01:57.588Z,98034.66
2023-03-29T13:04:38.722Z,98035.69
2023-03-29T13:07:07.144Z,98043.47
2023-03-29T13:09:56.123Z,98026.84
2023-03-29T13:12:35.468Z,98034.69
2023-03-29T13:15:08.235Z,98029.31
2023-03-29T13:17:58.715Z,98036.56
2023-03-29T13:20:52.508Z,98042.25
2023-03-29T13:23:37.054Z,98035.53
2023-03-29T13:26:30.189Z,98039.28
2023-03-29T13:29:18.797Z,98028.66
2023-03-29T13:32:04.753Z,98026.34
2023-03-29T13:34:47.278Z,98011.31
2023-03-29T13:37:41.011Z,98008.63
2023-03-29T13:40:29.669Z,98018.69
2023-03-29T13:43:09.929Z,98006.06
2023-03-29T13:45:38.783Z,98007.66
2023-03-29T13:48:30.052Z,97997.34
2023-03-29T13:51:19.064Z,98002.09
2023-03-29T13:54:07.364Z,97991.88
2023-03-29T13:56:39.748Z,97987.03
2023-03-29T13:59:18.887Z,97984.09
2023-03-29T14:01:54.492Z,97991.53
2023-03-29T14:04:25.520Z,97988.50
2023-03-29T14:06:55.845Z,97976.13
2023-03-29T14:09:28.500Z,97994.28
2023-03-29T14:11:56.867Z,97990.66
2023-03-29T14:14:25.579Z,97987.41
2023-03-29T14:16:54.938Z,97993.94
2023-03-29T14:19:30.926Z,97993.94
2023-03-29T14:22:00.396Z,97998.56
2023-03-29T14:24:35.543Z,97996.03
2023-03-29T14:27:05.023Z,97989.06
2023-03-29T14:29:33.392Z,97990.53
2023-03-29T14:32:11.280Z,97995.84
2023-03-29T14:34:39.192Z,97992.34
2023-03-29T14:37:08.959Z,97987.81
2023-03-29T14:39:36.638Z,97994.03
2023-03-29T14:42:03.785Z,97990.44
2023-03-29T14:44:34.707Z,97989.56
2023-03-29T14:47:02.976Z,97982.69
2023-03-29T14:49:31.743Z,97985.63
2023-03-29T14:51:59.266Z,97992.19
2023-03-29T14:54:27.880Z,97985.03
2023-03-29T14:56:55.394Z,97984.63
2023-03-29T14:59:29.050Z,97983.69
2023-03-29T15:01:56.420Z,97979.28
2023-03-29T15:04:23.748Z,97973.56
2023-03-29T15:06:53.110Z,97964.28
2023-03-29T15:09:27.201Z,97957.53
2023-03-29T15:11:56.434Z,97958.66
2023-03-29T15:14:26.850Z,97958.88
2023-03-29T15:16:58.071Z,97947.91
2023-03-29T15:19:25.701Z,97948.66
2023-03-29T15:21:52.842Z,97941.91
2023-03-29T15:24:29.291Z,97934.94
2023-03-29T15:27:13.923Z,97927.66
2023-03-29T15:29:42.910Z,97929.84
2023-03-29T15:32:22.747Z,97939.00
2023-03-29T15:35:05.083Z,97929.31
2023-03-29T15:37:32.200Z,97935.34
2023-03-29T15:39:59.613Z,97937.97
2023-03-29T15:42:26.851Z,97941.09
2023-03-29T15:44:56.165Z,97943.53
2023-03-29T15:47:23.980Z,97935.09
2023-03-29T15:49:51.659Z,97943.84
2023-03-29T15:52:18.731Z,97939.09
2023-03-29T15:54:45.750Z,97937.97
2023-03-29T15:57:14.901Z,97934.47
2023-03-29T15:59:42.858Z,97940.28
2023-03-29T16:02:15.846Z,97932.19
2023-03-29T16:04:43.364Z,97925.97
2023-03-29T16:07:14.116Z,97931.59
2023-03-29T16:09:41.327Z,97929.38
2023-03-29T16:12:08.357Z,97921.47
2023-03-29T16:14:36.163Z,97928.34
2023-03-29T16:17:04.002Z,97932.16
2023-03-29T16:19:32.601Z,97929.22
2023-03-29T16:22:01.153Z,97935.22
2023-03-29T16:24:31.363Z,97925.31
2023-03-29T16:26:59.116Z,97934.81
2023-03-29T16:29:26.299Z,97925.66
2023-03-29T16:31:53.833Z,97928.50
2023-03-29T16:34:21.787Z,97924.63
2023-03-29T16:36:49.876Z,97930.09
2023-03-29T16:39:18.281Z,97924.00
2023-03-29T16:41:48.325Z,97916.81
2023-03-29T16:44:18.608Z,97921.06
2023-03-29T16:46:47.205Z,97923.06
2023-03-29T16:49:18.804Z,97922.09
2023-03-29T16:51:46.891Z,97915.69
2023-03-29T16:54:14.859Z,97914.31
2023-03-29T16:56:42.134Z,97916.13
2023-03-29T16:59:09.349Z,97915.16
2023-03-29T17:01:36.694Z,97898.53
2023-03-29T17:04:04.340Z,97906.94
2023-03-29T17:06:32.653Z,97900.00
2023-03-29T17:09:00.600Z,97908.75
2023-03-29T17:11:28.969Z,97909.28
2023-03-29T17:13:56.272Z,97909.81
2023-03-29T17:16:23.470Z,97909.09
2023-03-29T17:18:50.680Z,97905.72
2023-03-29T17:21:17.779Z,97912.25
2023-03-29T17:23:44.867Z,97910.75
2023-03-29T17:26:13.365Z,97909.53
2023-03-29T17:28:40.462Z,97912.25
2023-03-29T17:31:08.007Z,97912.88
2023-03-29T17:33:36.072Z,97910.16
2023-03-29T17:36:04.554Z,97908.44
2023-03-29T17:38:34.092Z,97911.09
2023-03-29T17:41:02.803Z,97902.47
2023-03-29T17:43:30.396Z,97908.47
2023-03-29T17:45:57.738Z,97914.47
2023-03-29T17:48:24.827Z,97910.56
2023-03-29T17:50:52.079Z,97916.56
2023-03-29T17:53:19.256Z,97919.41
2023-03-29T17:55:46.315Z,97917.72
2023-03-29T17:58:13.385Z,97912.84
2023-03-29T18:00:41.459Z,97920.63
2023-03-29T18:03:08.549Z,97926.41
2023-03-29T18:05:35.972Z,97929.97
2023-03-29T18:08:03.666Z,97935.78
2023-03-29T18:10:30.902Z,97941.84
2023-03-29T18:12:58.014Z,97939.13
2023-03-29T18:15:25.219Z,97942.91
2023-03-29T18:17:52.359Z,97942.25
2023-03-29T18:20:20.618Z,97946.25
2023-03-29T18:22:47.784Z,97939.81
2023-03-29T18:25:18.206Z,97948.34
2023-03-29T18:27:45.348Z,97945.16
2023-03-29T18:30:13.917Z,97938.94
2023-03-29T18:32:41.064Z,97935.72
2023-03-29T18:35:08.901Z,97936.00
2023-03-29T18:37:36.372Z,97941.06
2023-03-29T18:40:07.905Z,97940.31
2023-03-29T18:42:35.067Z,97935.06
2023-03-29T18:45:02.369Z,97935.34
2023-03-29T18:47:29.448Z,97937.78
2023-03-29T18:49:57.729Z,97934.00
2023-03-29T18:52:24.824Z,97934.53
2023-03-29T18:54:51.890Z,97938.72
2023-03-29T18:57:19.151Z,97931.78
2023-03-29T18:59:46.791Z,97928.13
2023-03-29T19:02:14.109Z,97930.09
2023-03-29T19:04:41.180Z,97934.09
2023-03-29T19:07:08.945Z,97919.16
2023-03-29T19:09:36.057Z,97930.09
2023-03-29T19:12:03.502Z,97925.13
2023-03-29T19:14:30.685Z,97919.78
2023-03-29T19:16:57.769Z,97923.53
2023-03-29T19:19:26.426Z,97917.56
2023-03-29T19:21:53.695Z,97931.44
2023-03-29T19:24:21.912Z,97924.72
2023-03-29T19:26:51.549Z,97923.47
2023-03-29T19:29:18.735Z,97916.72
2023-03-29T19:31:46.172Z,97918.72
2023-03-29T19:34:13.373Z,97921.16
2023-03-29T19:36:40.558Z,97913.19
2023-03-29T19:39:07.621Z,97913.38
2023-03-29T19:41:34.683Z,97910.44
2023-03-29T19:44:01.984Z,97909.91
2023-03-29T19:46:29.240Z,97898.78
2023-03-29T19:48:56.341Z,97892.31
2023-03-29T19:51:23.710Z,97893.81
2023-03-29T19:53:50.829Z,97894.97
2023-03-29T19:56:17.910Z,97895.72
2023-03-29T19:58:45.690Z,97896.16
2023-03-29T20:01:12.798Z,97893.84
2023-03-29T20:03:42.257Z,97885.09
2023-03-29T20:06:11.030Z,97878.41
2023-03-29T20:08:38.957Z,97878.59
2023-03-29T20:11:10.207Z,97870.41
2023-03-29T20:13:46.759Z,97872.41
2023-03-29T20:16:18.097Z,97865.13
2023-03-29T20:18:45.665Z,97863.34
2023-03-29T20:21:14.127Z,97856.59
2023-03-29T20:23:41.567Z,97858.09
2023-03-29T20:26:08.705Z,97861.25
2023-03-29T20:28:37.724Z,97868.94
2023-03-29T20:31:07.256Z,97854.31
2023-03-29T20:33:34.518Z,97858.31
2023-03-29T20:36:01.716Z,97850.09
2023-03-29T20:38:28.921Z,97844.09
2023-03-29T20:40:56.046Z,97844.63
2023-03-29T20:43:24.572Z,97843.38
2023-03-29T20:45:53.860Z,97839.69
2023-03-29T20:48:23.496Z,97836.44
2023-03-29T20:50:51.366Z,97834.63
2023-03-29T20:53:20.236Z,97831.69
2023-03-29T20:55:47.820Z,97824.97
2023-03-29T20:58:15.713Z,97828.44
2023-03-29T21:00:43.536Z,97822.22
2023-03-29T21:03:10.846Z,97826.44
2023-03-29T21:05:39.145Z,97809.06
2023-03-29T21:08:06.315Z,97822.53
2023-03-29T21:10:33.468Z,97812.34
2023-03-29T21:13:02.862Z,97810.09
2023-03-29T21:15:31.179Z,97809.38
2023-03-29T21:17:58.520Z,97805.41
2023-03-29T21:20:26.128Z,97800.13
2023-03-29T21:22:53.250Z,97806.34
2023-03-29T21:25:20.326Z,97796.88
2023-03-29T21:27:47.571Z,97811.81
2023-03-29T21:30:14.832Z,97807.06
2023-03-29T21:32:41.999Z,97803.59
2023-03-29T21:35:09.710Z,97791.19
2023-03-29T21:37:36.959Z,97796.97
2023-03-29T21:40:09.256Z,97791.81
2023-03-29T21:42:36.395Z,97784.88
2023-03-29T21:45:04.605Z,97778.97
2023-03-29T21:47:31.726Z,97787.91
2023-03-29T21:49:58.808Z,97789.91
2023-03-29T21:52:25.972Z,97792.75
2023-03-29T21:54:53.409Z,97787.38
2023-03-29T21:57:20.636Z,97788.63
2023-03-29T21:59:47.769Z,97779.47
2023-03-29T22:02:17.527Z,97778.22
2023-03-29T22:04:44.733Z,97774.00
2023-03-29T22:07:12.335Z,97777.38
2023-03-29T22:09:42.476Z,97770.44
2023-03-29T22:12:10.413Z,97772.94
2023-03-29T22:14:37.466Z,97767.50
2023-03-29T22:17:10.170Z,97764.63
2023-03-29T22:19:40.095Z,97775.78
2023-03-29T22:22:13.507Z,97768.22
2023-03-29T22:24:41.897Z,97777.91
2023-03-29T22:27:09.705Z,97779.38
2023-03-29T22:29:36.810Z,97782.63
2023-03-29T22:32:04.174Z,97780.00
2023-03-29T22:34:31.835Z,97782.00
2023-03-29T22:36:58.906Z,97782.75
2023-03-29T22:39:25.987Z,97784.22
2023-03-29T22:41:53.052Z,97776.97
2023-03-29T22:44:20.304Z,97775.69
2023-03-29T22:46:47.407Z,97781.16
2023-03-29T22:49:14.682Z,97784.94
2023-03-29T22:51:41.880Z,97785.47
2023-03-29T22:54:08.923Z,97786.84
2023-03-29T22:56:36.001Z,97775.97
2023-03-29T22:59:03.330Z,97772.72
2023-03-29T23:01:30.725Z,97765.34
2023-03-29T23:03:57.820Z,97759.66
2023-03-29T23:06:25.005Z,97768.38
2023-03-29T23:08:52.076Z,97752.72
2023-03-29T23:11:19.178Z,97740.22
2023-03-29T23:13:49.076Z,97746.94
2023-03-29T23:16:16.340Z,97747.88
2023-03-29T23:18:44.054Z,97742.41
2023-03-29T23:21:11.155Z,97731.47
2023-03-29T23:23:38.452Z,97732.22
2023-03-29T23:26:08.396Z,97724.25
2023-03-29T23:28:37.147Z,97718.56
2023-03-29T23:31:09.301Z,97727.59
2023-03-29T23:33:40.326Z,97712.69
2023-03-29T23:36:09.901Z,97717.63
2023-03-29T23:38:38.613Z,97718.56
2023-03-29T23:41:08.371Z,97713.31
2023-03-29T23:43:37.250Z,97728.00
2023-03-29T23:46:10.603Z,97718.25
2023-03-29T23:48:38.612Z,97714.47
2023-03-29T23:51:07.748Z,97718.56
2023-03-29T23:53:34.951Z,97719.09
2023-03-29T23:56:03.820Z,97693.75
2023-03-29T23:58:36.044Z,97663.28
